Time;durP1;ratioP1;P1;durP2;ratioP2;P2;SDS_P1;SDS_P2;PMS_P1;PMS_P2;Temp;Humidity;BMP_temperature;BMP_pressure;BME280_temperature;BME280_humidity;BME280_pressure;Samples;Min_cycle;Max_cycle;Signal;HPM_P1;HPM_P2
2022/04/27 00:01:39;;;;;;;1.30;1.30;;;8.00;99.90;;;;;;5024922;28;20226;-76
2022/04/27 00:04:07;;;;;;;1.23;1.23;;;8.00;99.90;;;;;;5023361;28;20213;-77
2022/04/27 00:06:34;;;;;;;1.30;1.30;;;7.90;99.90;;;;;;5025370;28;20643;-76
2022/04/27 00:09:02;;;;;;;1.17;1.17;;;7.90;99.90;;;;;;5025757;28;20192;-75
2022/04/27 00:11:29;;;;;;;1.23;1.23;;;7.80;99.90;;;;;;5026692;28;20202;-75
2022/04/27 00:13:56;;;;;;;1.30;1.30;;;7.90;99.90;;;;;;5021482;28;20231;-77
2022/04/27 00:16:23;;;;;;;1.40;1.40;;;7.90;99.90;;;;;;5025851;28;20204;-75
2022/04/27 00:18:50;;;;;;;1.20;1.20;;;7.90;99.90;;;;;;5024399;28;20253;-76
2022/04/27 00:21:18;;;;;;;1.52;1.52;;;7.90;99.90;;;;;;5025559;28;20215;-76
2022/04/27 00:23:46;;;;;;;1.65;1.60;;;7.80;99.90;;;;;;5026581;28;20223;-77
2022/04/27 00:26:13;;;;;;;1.50;1.50;;;7.70;99.90;;;;;;5024372;28;20257;-75
2022/04/27 00:28:40;;;;;;;1.23;1.23;;;7.70;99.90;;;;;;5025914;28;20235;-76
2022/04/27 00:31:07;;;;;;;1.40;1.40;;;7.60;99.90;;;;;;5023731;28;20215;-76
2022/04/27 00:33:34;;;;;;;1.10;1.10;;;7.60;99.90;;;;;;5024266;28;20231;-77
2022/04/27 00:36:01;;;;;;;1.13;1.13;;;7.70;99.90;;;;;;5023662;28;20210;-76
2022/04/27 00:38:29;;;;;;;1.30;1.30;;;7.70;99.90;;;;;;5023564;28;20894;-76
2022/04/27 00:40:56;;;;;;;1.70;1.60;;;7.70;99.90;;;;;;5025150;28;20261;-76
2022/04/27 00:43:39;;;;;;;1.67;1.58;;;7.70;99.90;;;;;;5023455;28;20227;-77
2022/04/27 00:46:06;;;;;;;1.50;1.50;;;7.70;99.90;;;;;;5021695;28;20647;-76
2022/04/27 00:48:35;;;;;;;1.40;1.40;;;7.70;99.90;;;;;;5024004;28;20293;-76
2022/04/27 00:51:03;;;;;;;1.10;1.10;;;7.70;99.90;;;;;;5022947;28;20283;-76
2022/04/27 00:53:32;;;;;;;1.27;1.27;;;7.70;99.90;;;;;;5024965;28;20223;-79
2022/04/27 00:56:00;;;;;;;1.30;1.30;;;7.70;99.90;;;;;;5020766;28;20794;-75
2022/04/27 00:58:28;;;;;;;1.02;1.02;;;7.70;99.90;;;;;;5023507;28;20224;-76
2022/04/27 01:00:55;;;;;;;1.20;1.20;;;7.70;99.90;;;;;;5020317;28;20204;-76
2022/04/27 01:03:23;;;;;;;1.40;1.40;;;7.70;99.90;;;;;;5021608;28;20231;-77
2022/04/27 01:05:51;;;;;;;1.35;1.35;;;7.70;99.90;;;;;;5018877;28;20196;-76
2022/04/27 01:08:21;;;;;;;1.45;1.45;;;7.70;99.90;;;;;;5023691;28;20216;-76
2022/04/27 01:10:50;;;;;;;1.75;1.65;;;7.70;99.90;;;;;;5021226;28;20195;-74
2022/04/27 01:13:18;;;;;;;1.17;1.17;;;7.60;99.90;;;;;;5023131;28;20236;-78
2022/04/27 01:15:45;;;;;;;1.35;1.35;;;7.60;99.90;;;;;;5024550;28;20296;-77
2022/04/27 01:18:12;;;;;;;1.70;1.60;;;7.50;99.90;;;;;;5021196;28;20227;-76
2022/04/27 01:20:44;;;;;;;1.45;1.45;;;7.50;99.90;;;;;;5024767;28;20906;-76
2022/04/27 01:23:13;;;;;;;1.75;1.58;;;7.50;99.90;;;;;;5023859;28;20227;-77
2022/04/27 01:25:51;;;;;;;1.33;1.33;;;7.50;99.90;;;;;;5022897;28;20204;-77
2022/04/27 01:28:20;;;;;;;1.38;1.38;;;7.50;99.90;;;;;;5021815;28;20219;-81
2022/04/27 01:30:48;;;;;;;1.58;1.52;;;7.50;99.90;;;;;;5021394;28;20207;-75
2022/04/27 01:33:15;;;;;;;1.20;1.20;;;7.50;99.90;;;;;;5021905;28;20224;-76
2022/04/27 01:35:43;;;;;;;1.42;1.35;;;7.50;99.90;;;;;;5023201;28;20254;-78
2022/04/27 01:38:10;;;;;;;1.40;1.40;;;7.40;99.90;;;;;;5024391;28;20637;-76
2022/04/27 01:40:37;;;;;;;1.38;1.38;;;7.50;99.90;;;;;;5023718;28;20232;-77
2022/04/27 01:43:05;;;;;;;1.38;1.38;;;7.40;99.90;;;;;;5024683;28;20226;-77
2022/04/27 01:45:32;;;;;;;1.40;1.30;;;7.40;99.90;;;;;;5021841;28;20290;-75
2022/04/27 01:47:59;;;;;;;1.27;1.27;;;7.40;99.90;;;;;;5023275;28;20215;-76
2022/04/27 01:50:26;;;;;;;1.45;1.45;;;7.40;99.90;;;;;;5023492;28;20192;-79
2022/04/27 01:55:39;;;;;;;1.58;1.38;;;7.40;99.90;;;;;;5024753;28;20685;-76
2022/04/27 01:58:06;;;;;;;1.73;1.63;;;7.30;99.90;;;;;;5026939;28;20687;-76
2022/04/27 02:00:34;;;;;;;1.50;1.40;;;7.20;99.90;;;;;;5020920;28;20207;-76
2022/04/27 02:03:02;;;;;;;1.92;1.80;;;7.20;99.90;;;;;;5023727;28;20224;-76
2022/04/27 02:05:28;;;;;;;1.80;1.70;;;7.20;99.90;;;;;;5021931;28;20207;-76
2022/04/27 02:07:57;;;;;;;1.90;1.80;;;7.20;99.90;;;;;;5022764;28;20701;-76
2022/04/27 02:10:24;;;;;;;1.60;1.50;;;7.20;99.90;;;;;;5024802;28;20219;-77
2022/04/27 02:12:51;;;;;;;1.90;1.80;;;7.10;99.90;;;;;;5024840;28;20219;-76
2022/04/27 02:15:18;;;;;;;1.70;1.60;;;7.10;99.90;;;;;;5023979;28;20215;-75
2022/04/27 02:17:45;;;;;;;1.60;1.60;;;7.10;99.90;;;;;;5019367;28;21452;-75
2022/04/27 02:20:12;;;;;;;1.30;1.30;;;7.00;99.90;;;;;;5024219;28;20203;-75
2022/04/27 02:22:40;;;;;;;1.83;1.75;;;7.00;99.90;;;;;;5023694;28;20799;-76
2022/04/27 02:25:09;;;;;;;1.65;1.55;;;7.00;99.90;;;;;;5021525;28;20556;-76
2022/04/27 02:27:36;;;;;;;1.90;1.80;;;7.00;99.90;;;;;;5021181;28;20223;-75
2022/04/27 02:30:04;;;;;;;1.88;1.77;;;7.00;99.90;;;;;;5023768;28;20315;-76
2022/04/27 02:32:31;;;;;;;1.42;1.42;;;6.90;99.90;;;;;;5021482;28;20291;-75
2022/04/27 02:34:58;;;;;;;2.00;1.52;;;6.90;99.90;;;;;;5021573;28;20674;-76
2022/04/27 02:37:25;;;;;;;1.80;1.70;;;6.90;99.90;;;;;;5021196;28;20220;-77
2022/04/27 02:39:52;;;;;;;2.17;1.90;;;6.80;99.90;;;;;;5025122;28;20250;-78
2022/04/27 02:42:22;;;;;;;1.52;1.48;;;6.80;99.90;;;;;;5021229;28;20223;-76
2022/04/27 02:44:49;;;;;;;1.65;1.55;;;6.80;99.90;;;;;;5021111;28;20314;-76
2022/04/27 02:47:16;;;;;;;1.45;1.45;;;6.90;99.90;;;;;;5022990;28;20231;-76
2022/04/27 02:52:27;;;;;;;2.05;1.95;;;6.90;99.90;;;;;;5020427;28;20265;-78
2022/04/27 02:54:54;;;;;;;2.05;1.95;;;6.90;99.90;;;;;;5023577;28;20227;-76
2022/04/27 02:57:23;;;;;;;1.73;1.65;;;6.90;99.90;;;;;;5023334;28;20235;-76
2022/04/27 02:59:50;;;;;;;1.30;1.30;;;7.00;99.90;;;;;;5022399;28;20290;-76
2022/04/27 03:02:17;;;;;;;1.60;1.50;;;6.90;99.90;;;;;;5023790;28;20225;-77
2022/04/27 03:04:44;;;;;;;1.80;1.70;;;6.90;99.90;;;;;;5020680;28;20220;-76
2022/04/27 03:07:11;;;;;;;1.38;1.38;;;6.90;99.90;;;;;;5020765;28;20690;-76
2022/04/27 03:09:38;;;;;;;1.45;1.45;;;6.80;99.90;;;;;;5021614;28;20213;-75
2022/04/27 03:12:06;;;;;;;1.80;1.70;;;6.70;99.90;;;;;;5025337;28;20203;-76
2022/04/27 03:14:34;;;;;;;1.73;1.73;;;6.70;99.90;;;;;;5023891;28;20227;-77
2022/04/27 03:17:01;;;;;;;1.90;1.80;;;6.60;99.90;;;;;;5025764;28;20219;-78
2022/04/27 03:19:28;;;;;;;1.63;1.52;;;6.60;99.90;;;;;;5024135;28;20204;-76
2022/04/27 03:21:55;;;;;;;1.30;1.30;;;6.60;99.90;;;;;;5026234;28;20195;-76
2022/04/27 03:24:22;;;;;;;1.80;1.70;;;6.70;99.90;;;;;;5022648;28;20690;-77
2022/04/27 03:26:49;;;;;;;1.85;1.75;;;6.70;99.90;;;;;;5025471;28;20211;-77
2022/04/27 03:29:16;;;;;;;1.20;1.20;;;6.70;99.90;;;;;;5026526;28;20208;-75
2022/04/27 03:31:45;;;;;;;2.17;1.52;;;6.70;99.90;;;;;;5023521;28;20711;-74
2022/04/27 03:34:12;;;;;;;1.52;1.50;;;6.70;99.90;;;;;;5025901;28;20223;-77
2022/04/27 03:36:39;;;;;;;1.65;1.65;;;6.60;99.90;;;;;;5021619;28;20196;-76
2022/04/27 03:39:06;;;;;;;1.83;1.73;;;6.70;99.90;;;;;;5022884;28;20637;-80
2022/04/27 03:41:33;;;;;;;1.80;1.70;;;6.70;99.90;;;;;;5022946;28;20211;-78
2022/04/27 03:44:00;;;;;;;1.73;1.73;;;6.70;99.90;;;;;;5023760;28;20301;-75
2022/04/27 03:46:27;;;;;;;1.50;1.50;;;6.70;99.90;;;;;;5025360;28;20203;-77
2022/04/27 03:48:56;;;;;;;1.80;1.70;;;6.70;99.90;;;;;;5023216;28;20710;-75
2022/04/27 03:51:23;;;;;;;1.60;1.60;;;6.70;99.90;;;;;;5020949;28;20668;-76
2022/04/27 03:53:50;;;;;;;2.17;2.03;;;6.60;99.90;;;;;;5025624;28;20223;-76
2022/04/27 03:56:18;;;;;;;1.55;1.50;;;6.60;99.90;;;;;;5022659;28;20308;-78
2022/04/27 03:58:45;;;;;;;2.17;1.98;;;6.60;99.90;;;;;;5023981;28;20725;-76
2022/04/27 04:01:13;;;;;;;1.80;1.70;;;6.50;99.90;;;;;;5026219;28;20200;-75
2022/04/27 04:03:40;;;;;;;1.77;1.67;;;6.50;99.90;;;;;;5025926;28;20536;-77
2022/04/27 04:06:09;;;;;;;1.80;1.70;;;6.50;99.90;;;;;;5022460;28;20187;-75
2022/04/27 04:08:36;;;;;;;1.80;1.80;;;6.50;99.90;;;;;;5022692;28;20223;-77
2022/04/27 04:11:03;;;;;;;2.00;1.90;;;6.50;99.90;;;;;;5023804;28;20204;-77
2022/04/27 04:13:30;;;;;;;1.95;1.85;;;6.50;99.90;;;;;;5043579;22;20203;-77
2022/04/27 04:15:57;;;;;;;2.00;1.90;;;6.50;99.90;;;;;;5059727;28;20230;-78
2022/04/27 04:18:24;;;;;;;1.88;1.73;;;6.50;99.90;;;;;;5063784;28;20263;-78
2022/04/27 04:20:51;;;;;;;1.85;1.75;;;6.50;99.90;;;;;;5063537;28;20206;-79
2022/04/27 04:23:19;;;;;;;2.05;1.95;;;6.40;99.90;;;;;;5061058;28;20293;-78
2022/04/27 04:28:31;;;;;;;1.95;1.75;;;6.30;99.90;;;;;;5049365;28;20218;-78
2022/04/27 04:30:59;;;;;;;2.03;1.92;;;6.30;99.90;;;;;;5050283;28;20201;-79
2022/04/27 04:33:26;;;;;;;2.20;2.10;;;6.40;99.90;;;;;;5046621;28;20271;-76
2022/04/27 04:35:53;;;;;;;2.00;1.90;;;6.50;99.90;;;;;;5049689;28;20223;-77
2022/04/27 04:38:22;;;;;;;2.10;2.00;;;6.50;99.90;;;;;;5048116;28;20230;-79
2022/04/27 04:40:49;;;;;;;2.13;1.92;;;6.50;99.90;;;;;;5046016;28;20202;-78
2022/04/27 04:43:16;;;;;;;2.17;2.08;;;6.60;99.90;;;;;;5043365;28;20230;-79
2022/04/27 04:45:43;;;;;;;1.98;1.88;;;6.60;99.90;;;;;;5047682;28;20198;-78
2022/04/27 04:48:10;;;;;;;1.95;1.85;;;6.60;99.90;;;;;;5048799;28;20309;-78
2022/04/27 04:50:37;;;;;;;2.28;2.17;;;6.60;99.90;;;;;;5049179;28;20203;-77
2022/04/27 04:53:05;;;;;;;1.90;1.80;;;6.60;99.90;;;;;;5045784;28;20709;-78
2022/04/27 04:55:33;;;;;;;2.10;2.00;;;6.70;99.90;;;;;;5047687;28;20249;-77
2022/04/27 04:58:00;;;;;;;2.15;2.05;;;7.00;99.90;;;;;;5049229;28;20225;-78
2022/04/27 05:00:27;;;;;;;1.80;1.70;;;7.30;99.90;;;;;;5048590;28;20198;-78
2022/04/27 05:02:54;;;;;;;1.98;1.88;;;7.50;99.90;;;;;;5051389;28;20233;-77
2022/04/27 05:05:22;;;;;;;1.85;1.75;;;7.80;99.90;;;;;;5046488;28;21822;-77
2022/04/27 05:07:49;;;;;;;1.90;1.80;;;8.10;99.90;;;;;;5045394;28;20226;-77
2022/04/27 05:10:16;;;;;;;1.92;1.83;;;8.30;99.90;;;;;;5045504;28;20578;-79
2022/04/27 05:12:45;;;;;;;2.03;1.92;;;8.60;99.90;;;;;;5042641;28;20794;-78
2022/04/27 05:15:12;;;;;;;2.08;1.95;;;8.70;99.90;;;;;;5050457;28;20219;-78
2022/04/27 05:17:41;;;;;;;2.22;2.10;;;8.70;99.90;;;;;;5046313;28;20301;-78
2022/04/27 05:20:09;;;;;;;2.30;2.20;;;8.70;99.90;;;;;;5050270;28;20223;-78
2022/04/27 05:22:38;;;;;;;1.70;1.52;;;8.70;99.90;;;;;;5050176;28;20230;-78
2022/04/27 05:25:07;;;;;;;2.28;2.08;;;8.70;99.90;;;;;;5052327;28;20242;-78
2022/04/27 05:27:34;;;;;;;2.17;2.03;;;8.80;99.90;;;;;;5045757;28;20284;-76
2022/04/27 05:32:47;;;;;;;1.73;1.63;;;9.00;99.90;;;;;;5052661;28;20276;-78
2022/04/27 05:35:15;;;;;;;2.20;2.00;;;9.30;99.90;;;;;;5055404;28;20685;-78
2022/04/27 05:37:43;;;;;;;2.17;2.00;;;9.60;99.90;;;;;;5048251;28;20227;-78
2022/04/27 05:40:11;;;;;;;1.90;1.80;;;9.90;99.90;;;;;;5044750;28;20245;-79
2022/04/27 05:42:38;;;;;;;1.90;1.80;;;10.10;99.90;;;;;;5045368;28;20288;-78
2022/04/27 05:45:08;;;;;;;2.83;2.10;;;10.30;99.90;;;;;;5048948;28;20292;-78
2022/04/27 05:47:37;;;;;;;2.60;2.40;;;10.40;99.90;;;;;;5049739;28;20282;-77
2022/04/27 05:50:05;;;;;;;3.85;2.90;;;10.50;99.90;;;;;;5050225;28;20248;-78
2022/04/27 05:52:32;;;;;;;2.00;1.90;;;10.70;99.90;;;;;;5049733;28;20222;-78
2022/04/27 05:55:00;;;;;;;1.98;1.88;;;10.90;99.90;;;;;;5048203;28;20673;-79
2022/04/27 05:57:27;;;;;;;2.38;2.17;;;11.10;99.90;;;;;;5045571;28;20205;-79
2022/04/27 05:59:54;;;;;;;2.08;1.98;;;11.40;99.90;;;;;;5051772;28;20186;-79
2022/04/27 06:02:23;;;;;;;2.00;1.90;;;11.50;99.90;;;;;;5044705;28;20204;-78
2022/04/27 06:04:50;;;;;;;2.03;1.88;;;11.40;99.90;;;;;;5051755;28;20217;-79
2022/04/27 06:07:17;;;;;;;2.75;1.83;;;11.40;99.90;;;;;;5049564;28;20208;-78
2022/04/27 06:09:44;;;;;;;5.55;1.90;;;11.30;99.90;;;;;;5052221;28;20287;-78
2022/04/27 06:12:11;;;;;;;2.58;2.38;;;11.10;99.90;;;;;;5054626;28;20202;-78
2022/04/27 06:14:38;;;;;;;3.38;2.20;;;11.00;99.90;;;;;;5053088;28;20223;-77
2022/04/27 06:17:05;;;;;;;2.13;2.03;;;11.10;99.90;;;;;;5052103;28;20257;-75
2022/04/27 06:19:34;;;;;;;1.95;1.85;;;11.10;99.90;;;;;;5052249;28;20230;-74
2022/04/27 06:22:01;;;;;;;2.33;2.22;;;11.00;99.90;;;;;;5058012;28;20191;-75
2022/04/27 06:24:29;;;;;;;2.33;2.13;;;10.90;99.90;;;;;;5054936;28;20711;-77
2022/04/27 06:26:56;;;;;;;2.28;1.92;;;11.00;99.90;;;;;;5043269;28;20191;-76
2022/04/27 06:29:23;;;;;;;2.40;2.20;;;11.20;99.90;;;;;;5047583;28;20214;-76
2022/04/27 06:31:50;;;;;;;2.42;1.98;;;11.40;99.90;;;;;;5043732;28;20677;-75
2022/04/27 06:34:17;;;;;;;2.15;2.05;;;11.40;99.90;;;;;;5039688;28;20234;-76
2022/04/27 06:36:46;;;;;;;2.75;2.05;;;11.40;99.90;;;;;;5043808;28;20226;-75
2022/04/27 06:39:15;;;;;;;2.10;1.90;;;11.40;99.90;;;;;;5043543;28;20277;-74
2022/04/27 06:41:43;;;;;;;2.28;2.08;;;11.40;99.90;;;;;;5043286;28;20206;-76
2022/04/27 06:44:10;;;;;;;2.22;2.03;;;11.40;99.90;;;;;;5049561;28;20221;-75
2022/04/27 06:46:37;;;;;;;2.40;2.30;;;11.40;99.90;;;;;;5053049;28;20199;-76
2022/04/27 06:49:04;;;;;;;2.30;2.10;;;11.50;99.90;;;;;;5049658;28;20294;-76
2022/04/27 06:51:31;;;;;;;2.15;2.05;;;11.50;99.90;;;;;;5051479;28;20195;-76
2022/04/27 06:54:00;;;;;;;2.03;1.92;;;11.70;99.90;;;;;;5048177;28;20223;-77
2022/04/27 06:56:29;;;;;;;3.53;2.20;;;11.70;99.90;;;;;;5051502;28;20395;-75
2022/04/27 06:58:56;;;;;;;2.50;2.30;;;11.80;99.90;;;;;;5047424;28;20435;-75
2022/04/27 07:01:23;;;;;;;2.50;2.30;;;12.00;99.90;;;;;;5047212;28;20660;-78
2022/04/27 07:03:54;;;;;;;2.63;2.40;;;11.90;99.90;;;;;;5052867;28;20728;-79
2022/04/27 07:06:21;;;;;;;3.45;2.50;;;12.00;99.90;;;;;;5049907;28;20815;-79
2022/04/27 07:08:48;;;;;;;3.20;2.28;;;11.90;99.90;;;;;;5052990;28;20585;-78
2022/04/27 07:11:17;;;;;;;2.10;2.00;;;11.80;99.90;;;;;;5049886;28;20731;-75
2022/04/27 07:13:44;;;;;;;2.50;2.30;;;11.90;99.90;;;;;;5043561;28;20697;-77
2022/04/27 07:16:11;;;;;;;2.20;2.10;;;12.30;99.90;;;;;;5048700;28;20207;-77
2022/04/27 07:18:38;;;;;;;2.30;2.20;;;12.60;99.90;;;;;;5048002;28;20226;-78
2022/04/27 07:21:08;;;;;;;2.30;2.10;;;12.90;99.90;;;;;;5051291;28;20267;-77
2022/04/27 07:23:35;;;;;;;2.60;2.40;;;12.90;99.90;;;;;;5050762;28;20218;-76
2022/04/27 07:26:02;;;;;;;2.40;2.20;;;12.80;99.90;;;;;;5049410;28;20503;-77
2022/04/27 07:28:30;;;;;;;2.60;2.40;;;12.60;99.90;;;;;;5052416;28;20226;-78
2022/04/27 07:30:58;;;;;;;2.20;2.00;;;12.60;99.90;;;;;;5051638;28;20194;-76
2022/04/27 07:33:25;;;;;;;2.30;2.20;;;12.80;99.90;;;;;;5051310;28;20225;-76
2022/04/27 07:35:52;;;;;;;2.10;2.00;;;12.70;99.90;;;;;;5052504;28;20234;-76
2022/04/27 07:38:19;;;;;;;2.25;2.03;;;12.80;99.90;;;;;;5045816;28;20222;-79
2022/04/27 07:40:46;;;;;;;2.60;2.40;;;12.70;99.90;;;;;;5051576;28;20605;-78
2022/04/27 07:43:14;;;;;;;2.60;2.17;;;12.90;99.90;;;;;;5048821;28;20277;-77
2022/04/27 07:45:44;;;;;;;1.98;1.73;;;13.10;99.90;;;;;;5049789;28;20195;-79
2022/04/27 07:48:11;;;;;;;2.13;1.92;;;13.40;99.90;;;;;;5047284;28;20226;-77
2022/04/27 07:50:39;;;;;;;2.25;2.05;;;13.60;99.90;;;;;;5050345;28;20199;-75
2022/04/27 07:53:06;;;;;;;2.13;2.03;;;13.60;99.90;;;;;;5049350;28;20205;-76
2022/04/27 07:55:33;;;;;;;1.95;1.80;;;13.80;99.90;;;;;;5043383;28;20222;-75
2022/04/27 07:58:00;;;;;;;2.05;1.95;;;14.00;99.90;;;;;;5049404;28;20201;-76
2022/04/27 08:00:29;;;;;;;3.15;2.13;;;14.20;99.90;;;;;;5050726;28;20264;-76
2022/04/27 08:02:58;;;;;;;2.35;2.15;;;14.30;99.90;;;;;;5050758;28;20632;-75
2022/04/27 08:05:26;;;;;;;2.88;2.30;;;14.10;99.90;;;;;;5049946;28;20214;-76
2022/04/27 08:07:53;;;;;;;2.40;2.22;;;14.10;99.90;;;;;;5048581;28;20333;-77
2022/04/27 08:10:22;;;;;;;1.80;1.70;;;14.00;99.90;;;;;;5050820;28;20658;-76
2022/04/27 08:12:50;;;;;;;2.08;1.95;;;13.90;99.90;;;;;;5051203;28;20203;-76
2022/04/27 08:15:18;;;;;;;2.28;2.10;;;14.00;99.90;;;;;;5048994;28;20226;-77
2022/04/27 08:17:53;;;;;;;2.05;1.85;;;13.90;99.90;;;;;;5048285;28;20256;-74
2022/04/27 08:23:08;;;;;;;1.90;1.80;;;14.00;99.90;;;;;;5049865;28;20217;-75
2022/04/27 08:25:36;;;;;;;1.92;1.83;;;14.30;99.90;;;;;;5049839;28;20274;-76
2022/04/27 08:28:06;;;;;;;1.80;1.70;;;14.30;99.90;;;;;;5049740;28;20277;-75
2022/04/27 08:30:34;;;;;;;2.65;1.95;;;14.60;99.90;;;;;;5050681;28;20624;-74
2022/04/27 08:33:01;;;;;;;1.95;1.85;;;14.60;99.90;;;;;;5049379;28;20226;-76
2022/04/27 08:35:31;;;;;;;2.17;2.00;;;14.70;99.90;;;;;;5045872;28;20226;-76
2022/04/27 08:37:58;;;;;;;2.10;2.00;;;14.70;99.90;;;;;;5046568;28;20210;-76
2022/04/27 08:40:25;;;;;;;2.53;1.80;;;14.90;99.90;;;;;;5047152;28;20668;-75
2022/04/27 08:42:53;;;;;;;2.13;1.70;;;15.30;99.90;;;;;;5046043;28;20215;-75
2022/04/27 08:45:21;;;;;;;2.22;1.70;;;15.40;99.90;;;;;;5046960;28;20235;-75
2022/04/27 08:47:49;;;;;;;2.25;2.05;;;15.50;99.90;;;;;;5044173;28;20201;-75
2022/04/27 08:50:18;;;;;;;2.45;1.65;;;15.30;99.90;;;;;;5046617;28;20611;-75
2022/04/27 08:52:47;;;;;;;1.92;1.67;;;15.20;99.90;;;;;;5048390;28;20202;-73
2022/04/27 08:55:15;;;;;;;2.08;1.98;;;15.20;99.90;;;;;;5043086;28;20231;-75
2022/04/27 08:57:44;;;;;;;2.65;1.90;;;15.10;99.90;;;;;;5044060;28;20214;-74
2022/04/27 09:00:14;;;;;;;2.33;1.92;;;15.30;99.90;;;;;;5044333;28;20739;-76
2022/04/27 09:02:42;;;;;;;1.80;1.70;;;15.70;99.90;;;;;;5046384;28;20191;-75
2022/04/27 09:05:11;;;;;;;1.77;1.67;;;15.90;99.90;;;;;;5045221;28;20226;-76
2022/04/27 09:07:42;;;;;;;1.80;1.70;;;16.40;99.90;;;;;;5040011;28;20218;-76
2022/04/27 09:10:12;;;;;;;1.60;1.50;;;16.70;99.90;;;;;;5044730;28;20575;-75
2022/04/27 09:12:47;;;;;;;1.77;1.67;;;17.00;99.90;;;;;;5041758;28;20285;-76
2022/04/27 09:15:15;;;;;;;1.80;1.70;;;17.20;99.90;;;;;;5046150;28;20234;-76
2022/04/27 09:23:24;;;;;;;1.58;1.48;;;17.30;99.90;;;;;;5041413;28;20748;-74
2022/04/27 09:25:55;;;;;;;1.75;1.50;;;17.00;99.90;;;;;;5038725;28;20718;-75
2022/04/27 09:28:24;;;;;;;1.77;1.67;;;16.90;99.90;;;;;;5038280;28;20905;-75
2022/04/27 09:30:52;;;;;;;2.28;1.77;;;16.80;99.90;;;;;;5044328;28;20302;-74
2022/04/27 09:33:33;;;;;;;1.98;1.75;;;17.20;99.90;;;;;;5042313;28;20202;-75
2022/04/27 09:36:00;;;;;;;3.45;1.67;;;17.60;99.90;;;;;;5038156;28;20225;-74
2022/04/27 09:38:38;;;;;;;1.67;1.58;;;17.80;99.90;;;;;;5040896;28;20195;-74
2022/04/27 09:41:06;;;;;;;2.80;1.50;;;17.80;99.90;;;;;;5038344;28;20219;-74
2022/04/27 09:43:43;;;;;;;2.03;1.40;;;17.40;99.90;;;;;;5038272;28;20222;-75
2022/04/27 09:46:20;;;;;;;1.98;1.83;;;17.40;99.90;;;;;;5044669;28;20210;-75
2022/04/27 09:48:47;;;;;;;1.70;1.60;;;17.50;99.90;;;;;;5039248;28;20197;-75
2022/04/27 09:51:15;;;;;;;1.80;1.70;;;17.60;99.90;;;;;;5044051;28;20211;-75
2022/04/27 09:53:43;;;;;;;2.03;1.67;;;17.60;99.90;;;;;;5051826;28;20222;-74
2022/04/27 09:56:13;;;;;;;1.48;1.38;;;17.40;99.90;;;;;;5049672;28;20215;-75
2022/04/27 09:58:47;;;;;;;2.03;1.70;;;17.40;99.90;;;;;;5045843;28;20195;-74
2022/04/27 10:01:17;;;;;;;2.25;1.85;;;17.40;99.90;;;;;;5050103;28;20569;-76
2022/04/27 10:03:49;;;;;;;1.70;1.25;;;17.60;99.90;;;;;;5039604;28;20211;-75
2022/04/27 10:06:17;;;;;;;3.00;1.67;;;17.70;99.90;;;;;;5042673;28;20214;-75
2022/04/27 10:08:47;;;;;;;1.50;1.40;;;17.90;99.90;;;;;;5039723;28;20199;-76
2022/04/27 10:11:15;;;;;;;1.60;1.50;;;18.20;99.90;;;;;;5041519;28;20225;-76
2022/04/27 10:13:42;;;;;;;1.60;1.50;;;18.60;99.90;;;;;;5039138;28;20850;-77
2022/04/27 10:16:10;;;;;;;1.75;1.50;;;19.00;99.90;;;;;;5060012;22;20225;-77
2022/04/27 10:18:38;;;;;;;1.95;1.30;;;19.00;99.90;;;;;;5034618;28;20222;-82
2022/04/27 10:21:05;;;;;;;1.83;1.70;;;18.90;99.90;;;;;;5039321;28;20238;-76
2022/04/27 10:23:46;;;;;;;1.23;1.13;;;19.00;99.90;;;;;;5043821;28;20222;-77
2022/04/27 10:26:17;;;;;;;1.50;1.40;;;19.00;99.90;;;;;;5041490;28;20229;-78
2022/04/27 10:28:47;;;;;;;1.40;1.30;;;18.90;99.90;;;;;;5045690;28;20272;-77
2022/04/27 10:31:16;;;;;;;1.30;1.20;;;18.90;99.90;;;;;;5041382;28;20229;-79
2022/04/27 10:33:49;;;;;;;1.23;1.20;;;18.80;99.90;;;;;;5044926;28;20195;-77
2022/04/27 10:36:41;;;;;;;6.82;1.40;;;18.70;99.90;;;;;;5036914;28;20969;-78
2022/04/27 10:39:23;;;;;;;3.38;1.35;;;18.70;99.90;;;;;;5042532;28;20195;-76
2022/04/27 10:42:20;;;;;;;2.40;1.50;;;18.80;99.90;;;;;;5037309;28;20248;-76
2022/04/27 10:45:08;;;;;;;1.63;1.05;;;18.80;99.90;;;;;;5035826;28;20218;-77
2022/04/27 10:47:37;;;;;;;1.90;1.35;;;18.90;99.90;;;;;;5040917;28;20222;-76
2022/04/27 10:50:26;;;;;;;2.40;1.17;;;19.00;99.90;;;;;;5038490;28;20219;-77
2022/04/27 10:52:55;;;;;;;1.58;1.30;;;19.00;99.90;;;;;;5040437;28;20187;-76
2022/04/27 10:55:42;;;;;;;1.20;1.10;;;19.10;99.90;;;;;;5042710;28;20796;-76
2022/04/27 10:58:13;;;;;;;1.20;1.20;;;19.20;99.90;;;;;;5037572;28;20349;-76
2022/04/27 11:01:22;;;;;;;1.25;1.20;;;19.20;99.90;;;;;;5039128;28;20230;-75
2022/04/27 11:04:08;;;;;;;1.20;1.08;;;19.40;99.90;;;;;;5019787;28;20276;-74
2022/04/27 11:07:14;;;;;;;1.13;1.02;;;19.60;99.90;;;;;;5043132;28;20329;-74
2022/04/27 11:10:08;;;;;;;1.30;1.20;;;19.80;99.90;;;;;;5044648;28;20631;-74
2022/04/27 11:12:36;;;;;;;1.55;1.25;;;20.10;99.90;;;;;;5035595;28;20449;-75
2022/04/27 11:15:04;;;;;;;1.38;1.27;;;20.30;99.90;;;;;;5042938;28;20697;-74
2022/04/27 11:17:33;;;;;;;1.05;1.05;;;20.30;99.90;;;;;;5042705;28;20535;-74
2022/04/27 11:20:02;;;;;;;1.15;1.08;;;20.30;99.90;;;;;;5037765;28;20500;-74
2022/04/27 11:22:36;;;;;;;1.00;1.00;;;20.30;99.90;;;;;;5043393;28;20222;-74
2022/04/27 11:25:05;;;;;;;0.95;0.80;;;20.30;99.90;;;;;;5038091;28;20222;-75
2022/04/27 11:27:34;;;;;;;1.75;1.10;;;20.30;99.90;;;;;;5040748;28;20551;-74
2022/04/27 11:30:03;;;;;;;1.10;1.10;;;20.30;99.90;;;;;;5041731;28;20392;-75
2022/04/27 11:32:30;;;;;;;1.63;1.10;;;20.30;99.90;;;;;;5038904;28;20209;-75
2022/04/27 11:34:57;;;;;;;1.10;1.10;;;20.30;99.90;;;;;;5036444;28;20221;-76
2022/04/27 11:37:26;;;;;;;1.95;0.88;;;20.30;99.90;;;;;;5042393;28;20226;-75
2022/04/27 11:39:53;;;;;;;0.80;0.80;;;20.40;99.90;;;;;;5053625;28;20643;-76
2022/04/27 11:42:20;;;;;;;1.00;1.00;;;20.60;99.90;;;;;;5040905;28;20670;-76
2022/04/27 11:44:58;;;;;;;1.00;1.00;;;20.50;99.90;;;;;;5044842;28;20215;-76
2022/04/27 11:47:29;;;;;;;1.20;1.10;;;20.70;99.90;;;;;;5042166;28;20626;-76
2022/04/27 11:49:58;;;;;;;1.10;1.00;;;21.00;99.90;;;;;;5041746;28;20627;-76
2022/04/27 11:52:27;;;;;;;0.98;0.93;;;21.10;99.90;;;;;;5041666;28;20190;-76
2022/04/27 11:55:00;;;;;;;0.98;0.93;;;20.90;99.90;;;;;;5042029;28;20284;-76
2022/04/27 11:57:27;;;;;;;1.17;1.08;;;21.00;99.90;;;;;;5037955;28;20229;-76
2022/04/27 11:59:57;;;;;;;1.30;1.00;;;20.90;99.90;;;;;;5039648;28;20284;-77
2022/04/27 12:02:25;;;;;;;0.65;0.65;;;20.90;99.90;;;;;;5037694;28;20203;-76
2022/04/27 12:04:57;;;;;;;0.77;0.75;;;20.90;99.90;;;;;;5039383;28;20354;-76
2022/04/27 12:07:24;;;;;;;0.80;0.80;;;21.00;99.90;;;;;;5038875;28;20222;-77
2022/04/27 12:10:00;;;;;;;0.88;0.88;;;21.10;99.90;;;;;;5038493;28;20230;-76
2022/04/27 12:12:28;;;;;;;1.13;0.90;;;20.90;99.90;;;;;;5037904;28;20289;-76
2022/04/27 12:14:57;;;;;;;1.00;1.00;;;21.00;99.90;;;;;;5039654;28;20238;-76
2022/04/27 12:17:48;;;;;;;1.15;1.05;;;21.20;99.90;;;;;;5039849;28;20673;-76
2022/04/27 12:20:36;;;;;;;0.68;0.68;;;21.50;99.90;;;;;;5039413;28;20569;-74
2022/04/27 12:23:06;;;;;;;0.70;0.70;;;21.60;99.90;;;;;;5035940;28;20213;-75
2022/04/27 12:25:40;;;;;;;1.08;0.90;;;21.70;99.90;;;;;;5041050;28;20222;-75
2022/04/27 12:28:10;;;;;;;1.17;1.00;;;21.70;99.90;;;;;;5039787;28;20282;-75
2022/04/27 12:30:47;;;;;;;2.85;1.27;;;21.50;98.80;;;;;;5038050;28;20218;-75
2022/04/27 12:33:16;;;;;;;1.27;1.17;;;21.20;98.20;;;;;;5052641;28;20197;-75
2022/04/27 12:38:30;;;;;;;1.20;1.13;;;21.10;97.70;;;;;;5040836;28;20227;-77
2022/04/27 12:41:00;;;;;;;0.90;0.90;;;21.20;98.00;;;;;;5037938;28;20225;-74
2022/04/27 12:43:28;;;;;;;0.82;0.80;;;21.20;97.70;;;;;;5039998;28;20198;-73
2022/04/27 12:46:06;;;;;;;1.15;1.00;;;21.40;97.90;;;;;;5036666;28;20645;-74
2022/04/27 12:48:35;;;;;;;0.80;0.80;;;21.70;98.10;;;;;;5037108;28;20199;-73
2022/04/27 12:51:04;;;;;;;1.48;0.90;;;21.80;97.70;;;;;;5040803;28;20779;-74
2022/04/27 12:53:31;;;;;;;0.93;0.93;;;21.80;95.00;;;;;;5042795;28;20210;-75
2022/04/27 12:56:08;;;;;;;1.02;1.02;;;21.40;92.70;;;;;;5042997;28;20305;-77
2022/04/27 12:58:38;;;;;;;1.10;0.95;;;21.40;94.60;;;;;;5045311;28;20203;-78
2022/04/27 13:01:05;;;;;;;0.70;0.70;;;21.40;95.70;;;;;;5044298;28;20256;-78
2022/04/27 13:03:33;;;;;;;1.55;0.88;;;21.60;96.40;;;;;;5040758;28;20603;-78
2022/04/27 13:06:01;;;;;;;1.10;1.00;;;21.80;93.90;;;;;;5045234;28;20223;-78
2022/04/27 13:08:28;;;;;;;0.75;0.75;;;21.90;92.10;;;;;;5052916;28;20214;-77
2022/04/27 13:13:42;;;;;;;1.00;1.00;;;21.60;92.50;;;;;;5046539;28;20202;-78
2022/04/27 13:16:09;;;;;;;0.73;0.73;;;21.40;91.30;;;;;;5041030;28;20222;-78
2022/04/27 13:18:36;;;;;;;1.00;1.00;;;21.40;93.10;;;;;;5042806;28;20218;-78
2022/04/27 13:21:05;;;;;;;0.77;0.77;;;21.40;95.80;;;;;;5039133;28;20218;-77
2022/04/27 13:23:32;;;;;;;1.02;0.90;;;21.70;94.50;;;;;;5042544;28;20194;-77
2022/04/27 13:25:59;;;;;;;1.02;0.93;;;22.00;95.20;;;;;;5056260;28;20245;-79